createdAt,value
2017-03-27T00:00:49.679Z,1014.66
2017-03-27T00:01:49.694Z,1014.64
2017-03-27T00:02:49.711Z,1014.64
2017-03-27T00:03:49.727Z,1014.65
2017-03-27T00:04:49.741Z,1014.64
2017-03-27T00:05:49.757Z,1014.65
2017-03-27T00:06:49.773Z,1014.63
2017-03-27T00:07:49.789Z,1014.66
2017-03-27T00:08:49.805Z,1014.64
2017-03-27T00:09:49.820Z,1014.59
2017-03-27T00:10:49.838Z,1014.58
2017-03-27T00:11:49.853Z,1014.61
2017-03-27T00:12:49.869Z,1014.63
2017-03-27T00:13:49.884Z,1014.64
2017-03-27T00:14:49.900Z,1014.61
2017-03-27T00:15:49.915Z,1014.61
2017-03-27T00:16:49.931Z,1014.62
2017-03-27T00:17:49.948Z,1014.66
2017-03-27T00:18:49.963Z,1014.67
2017-03-27T00:19:49.977Z,1014.64
2017-03-27T00:20:49.994Z,1014.64
2017-03-27T00:21:50.010Z,1014.65
2017-03-27T00:22:50.024Z,1014.64
2017-03-27T00:23:50.041Z,1014.62
2017-03-27T00:24:50.055Z,1014.65
2017-03-27T00:25:50.071Z,1014.59
2017-03-27T00:26:50.087Z,1014.62
2017-03-27T00:27:50.103Z,1014.61
2017-03-27T00:28:50.119Z,1014.64
2017-03-27T00:29:50.136Z,1014.63
2017-03-27T00:30:50.147Z,1014.64
2017-03-27T00:31:50.164Z,1014.62
2017-03-27T00:32:50.179Z,1014.59
2017-03-27T00:33:50.194Z,1014.63
2017-03-27T00:34:50.209Z,1014.63
2017-03-27T00:35:50.225Z,1014.58
2017-03-27T00:36:50.241Z,1014.58
2017-03-27T00:37:50.256Z,1014.57
2017-03-27T00:38:50.272Z,1014.55
2017-03-27T00:39:50.288Z,1014.53
2017-03-27T00:40:50.303Z,1014.56
2017-03-27T00:41:50.318Z,1014.57
2017-03-27T00:42:50.335Z,1014.59
2017-03-27T00:43:50.351Z,1014.59
2017-03-27T00:44:50.364Z,1014.56
2017-03-27T00:45:50.379Z,1014.6
2017-03-27T00:46:50.396Z,1014.57
2017-03-27T00:47:50.596Z,1014.56
2017-03-27T00:48:50.426Z,1014.57
2017-03-27T00:49:50.441Z,1014.62
2017-03-27T00:50:50.458Z,1014.61
2017-03-27T00:51:50.473Z,1014.53
2017-03-27T00:52:50.495Z,1014.57
2017-03-27T00:53:50.503Z,1014.57
2017-03-27T00:54:50.518Z,1014.56
2017-03-27T00:55:50.533Z,1014.61
2017-03-27T00:56:50.548Z,1014.63
2017-03-27T00:57:50.565Z,1014.61
2017-03-27T00:58:50.580Z,1014.6
2017-03-27T00:59:50.594Z,1014.66
2017-03-27T01:00:50.609Z,1014.62
2017-03-27T01:01:50.624Z,1014.62
2017-03-27T01:02:50.644Z,1014.6
2017-03-27T01:03:50.655Z,1014.53
2017-03-27T01:04:50.672Z,1014.6
2017-03-27T01:05:50.686Z,1014.59
2017-03-27T01:06:50.700Z,1014.6
2017-03-27T01:07:50.717Z,1014.61
2017-03-27T01:08:50.732Z,1014.6
2017-03-27T01:09:50.746Z,1014.57
2017-03-27T01:10:50.762Z,1014.62
2017-03-27T01:11:50.777Z,1014.58
2017-03-27T01:12:50.791Z,1014.55
2017-03-27T01:13:50.808Z,1014.59
2017-03-27T01:14:50.824Z,1014.58
2017-03-27T01:15:50.838Z,1014.55
2017-03-27T01:16:50.853Z,1014.57
2017-03-27T01:17:50.867Z,1014.52
2017-03-27T01:18:50.882Z,1014.55
2017-03-27T01:19:50.900Z,1014.52
2017-03-27T01:20:50.914Z,1014.51
2017-03-27T01:21:50.930Z,1014.52
2017-03-27T01:22:50.944Z,1014.49
2017-03-27T01:23:50.959Z,1014.49
2017-03-27T01:24:50.974Z,1014.46
2017-03-27T01:25:50.989Z,1014.48
2017-03-27T01:26:51.003Z,1014.48
2017-03-27T01:27:51.018Z,1014.48
2017-03-27T01:28:51.033Z,1014.5
2017-03-27T01:29:51.050Z,1014.48
2017-03-27T01:30:51.063Z,1014.49
2017-03-27T01:31:51.079Z,1014.47
2017-03-27T01:32:51.096Z,1014.48
2017-03-27T01:33:51.109Z,1014.47
2017-03-27T01:34:51.123Z,1014.45
2017-03-27T01:35:51.140Z,1014.43
2017-03-27T01:36:51.153Z,1014.45
2017-03-27T01:37:51.169Z,1014.44
2017-03-27T01:38:51.184Z,1014.47
2017-03-27T01:39:51.199Z,1014.5
2017-03-27T01:40:51.214Z,1014.51
2017-03-27T01:41:51.230Z,1014.51
2017-03-27T01:42:51.246Z,1014.52
2017-03-27T01:43:51.258Z,1014.53
2017-03-27T01:44:51.274Z,1014.53
2017-03-27T01:45:51.290Z,1014.52
2017-03-27T01:46:51.304Z,1014.56
2017-03-27T01:47:51.318Z,1014.54
2017-03-27T01:48:51.335Z,1014.48
2017-03-27T01:49:51.348Z,1014.5
2017-03-27T01:50:51.364Z,1014.49
2017-03-27T01:51:51.379Z,1014.51
2017-03-27T01:52:51.392Z,1014.48
2017-03-27T01:53:51.407Z,1014.45
2017-03-27T01:54:51.422Z,1014.46
2017-03-27T01:55:51.440Z,1014.45
2017-03-27T01:56:51.456Z,1014.45
2017-03-27T01:57:51.468Z,1014.48
2017-03-27T01:58:51.481Z,1014.43
2017-03-27T01:59:51.496Z,1014.47
2017-03-27T02:00:51.534Z,1014.41
2017-03-27T02:01:51.526Z,1014.39
2017-03-27T02:02:51.542Z,1014.39
2017-03-27T02:03:51.557Z,1014.41
2017-03-27T02:04:51.583Z,1014.42
2017-03-27T02:05:51.585Z,1014.4
2017-03-27T02:06:51.600Z,1014.37
2017-03-27T02:07:51.617Z,1014.37
2017-03-27T02:08:51.629Z,1014.36
2017-03-27T02:09:51.644Z,1014.33
2017-03-27T02:10:51.660Z,1014.36
2017-03-27T02:11:51.673Z,1014.38
2017-03-27T02:12:51.689Z,1014.36
2017-03-27T02:13:51.705Z,1014.32
2017-03-27T02:14:51.719Z,1014.35
2017-03-27T02:15:51.732Z,1014.34
2017-03-27T02:16:51.746Z,1014.29
2017-03-27T02:17:51.768Z,1014.33
2017-03-27T02:18:51.778Z,1014.28
2017-03-27T02:19:51.790Z,1014.29
2017-03-27T02:20:51.806Z,1014.32
2017-03-27T02:21:51.821Z,1014.27
2017-03-27T02:22:51.835Z,1014.32
2017-03-27T02:23:51.851Z,1014.29
2017-03-27T02:24:51.864Z,1014.38
2017-03-27T02:25:51.878Z,1014.3
2017-03-27T02:26:51.894Z,1014.33
2017-03-27T02:27:51.908Z,1014.29
2017-03-27T02:28:51.926Z,1014.31
2017-03-27T02:29:51.937Z,1014.3
2017-03-27T02:30:51.952Z,1014.32
2017-03-27T02:31:51.966Z,1014.31
2017-03-27T02:32:51.981Z,1014.29
2017-03-27T02:33:51.996Z,1014.29
2017-03-27T02:34:52.011Z,1014.22
2017-03-27T02:35:52.024Z,1014.24
2017-03-27T02:36:52.039Z,1014.23
2017-03-27T02:37:52.053Z,1014.28
2017-03-27T02:38:52.102Z,1014.31
2017-03-27T02:39:52.083Z,1014.27
2017-03-27T02:40:52.098Z,1014.25
2017-03-27T02:41:52.114Z,1014.23
2017-03-27T02:42:52.127Z,1014.23
2017-03-27T02:43:52.142Z,1014.28
2017-03-27T02:44:52.156Z,1014.29
2017-03-27T02:45:52.170Z,1014.31
2017-03-27T02:46:52.210Z,1014.25
2017-03-27T02:47:52.199Z,1014.27
2017-03-27T02:48:52.217Z,1014.33
2017-03-27T02:49:52.228Z,1014.31
2017-03-27T02:50:52.243Z,1014.27
2017-03-27T02:51:52.258Z,1014.29
2017-03-27T02:52:52.299Z,1014.34
2017-03-27T02:53:52.286Z,1014.32
2017-03-27T02:54:52.303Z,1014.33
2017-03-27T02:55:52.315Z,1014.41
2017-03-27T02:56:52.329Z,1014.37
2017-03-27T02:57:52.345Z,1014.36
2017-03-27T02:58:52.360Z,1014.4
2017-03-27T02:59:52.374Z,1014.44
2017-03-27T03:00:52.386Z,1014.38
2017-03-27T03:01:52.402Z,1014.42
2017-03-27T03:02:52.417Z,1014.4
2017-03-27T03:03:52.430Z,1014.44
2017-03-27T03:04:52.445Z,1014.46
2017-03-27T03:05:52.459Z,1014.45
2017-03-27T03:06:52.475Z,1014.48
2017-03-27T03:07:52.488Z,1014.48
2017-03-27T03:08:52.502Z,1014.46
2017-03-27T03:09:52.518Z,1014.51
2017-03-27T03:10:52.535Z,1014.5
2017-03-27T03:11:52.546Z,1014.52
2017-03-27T03:12:52.561Z,1014.52
2017-03-27T03:13:52.574Z,1014.56
2017-03-27T03:14:52.588Z,1014.52
2017-03-27T03:15:52.603Z,1014.55
2017-03-27T03:16:52.618Z,1014.54
2017-03-27T03:17:52.634Z,1014.56
2017-03-27T03:18:52.646Z,1014.56
2017-03-27T03:19:52.663Z,1014.57
2017-03-27T03:20:52.681Z,1014.57
2017-03-27T03:21:52.689Z,1014.57
2017-03-27T03:22:52.704Z,1014.54
2017-03-27T03:23:52.718Z,1014.53
2017-03-27T03:24:52.733Z,1014.51
2017-03-27T03:25:52.747Z,1014.52
2017-03-27T03:26:52.761Z,1014.45
2017-03-27T03:27:52.776Z,1014.45
2017-03-27T03:28:52.791Z,1014.52
2017-03-27T03:29:52.804Z,1014.46
2017-03-27T03:30:52.818Z,1014.44
2017-03-27T03:31:52.832Z,1014.46
2017-03-27T03:32:52.853Z,1014.49
2017-03-27T03:33:52.861Z,1014.46
2017-03-27T03:34:52.874Z,1014.41
2017-03-27T03:35:52.892Z,1014.4
2017-03-27T03:36:52.903Z,1014.39
2017-03-27T03:37:52.919Z,1014.39
2017-03-27T03:38:52.932Z,1014.35
2017-03-27T03:39:52.946Z,1014.37
2017-03-27T03:40:52.960Z,1014.42
2017-03-27T03:41:52.975Z,1014.41
2017-03-27T03:42:52.990Z,1014.41
2017-03-27T03:43:53.002Z,1014.42
2017-03-27T03:44:53.017Z,1014.44
2017-03-27T03:45:53.032Z,1014.41
2017-03-27T03:46:53.046Z,1014.42
2017-03-27T03:47:53.063Z,1014.42
2017-03-27T03:48:53.073Z,1014.38
2017-03-27T03:49:53.089Z,1014.38
2017-03-27T03:50:53.102Z,1014.42
2017-03-27T03:51:53.117Z,1014.38
2017-03-27T03:52:53.131Z,1014.42
2017-03-27T03:53:53.146Z,1014.38
2017-03-27T03:54:53.159Z,1014.38
2017-03-27T03:55:53.172Z,1014.34
2017-03-27T03:56:53.186Z,1014.42
2017-03-27T03:57:53.201Z,1014.37
2017-03-27T03:58:53.216Z,1014.42
2017-03-27T03:59:53.230Z,1014.44
2017-03-27T04:00:53.244Z,1014.45
2017-03-27T04:01:53.259Z,1014.44
2017-03-27T04:02:53.410Z,1014.47
2017-03-27T04:03:53.285Z,1014.45
2017-03-27T04:04:53.302Z,1014.44
2017-03-27T04:05:53.425Z,1014.45
2017-03-27T04:06:53.418Z,1014.48
2017-03-27T04:07:53.427Z,1014.49
2017-03-27T04:08:53.436Z,1014.49
2017-03-27T04:09:53.582Z,1014.49
2017-03-27T04:10:53.452Z,1014.51
2017-03-27T04:11:53.453Z,1014.48
2017-03-27T04:12:53.461Z,1014.54
2017-03-27T04:13:53.470Z,1014.5
2017-03-27T04:14:53.780Z,1014.5
2017-03-27T04:15:53.487Z,1014.5
2017-03-27T04:16:53.485Z,1014.57
2017-03-27T04:17:53.504Z,1014.55
2017-03-27T04:18:53.566Z,1014.58
2017-03-27T04:19:53.690Z,1014.55
2017-03-27T04:20:53.581Z,1014.56
2017-03-27T04:21:53.589Z,1014.59
2017-03-27T04:22:53.588Z,1014.58
2017-03-27T04:23:53.597Z,1014.59
2017-03-27T04:24:53.747Z,1014.58
2017-03-27T04:25:53.614Z,1014.58
2017-03-27T04:26:53.614Z,1014.58
2017-03-27T04:27:53.624Z,1014.56
2017-03-27T04:28:53.637Z,1014.59
2017-03-27T04:29:53.783Z,1014.58
2017-03-27T04:30:53.755Z,1014.56
2017-03-27T04:31:53.687Z,1014.58
2017-03-27T04:32:53.697Z,1014.58
2017-03-27T04:33:53.706Z,1014.57
2017-03-27T04:34:53.769Z,1014.56
2017-03-27T04:35:53.733Z,1014.59
2017-03-27T04:36:53.746Z,1014.6
2017-03-27T04:37:53.763Z,1014.57
2017-03-27T04:38:53.774Z,1014.57
2017-03-27T04:39:53.839Z,1014.57
2017-03-27T04:40:53.803Z,1014.56
2017-03-27T04:41:53.817Z,1014.59
2017-03-27T04:42:53.832Z,1014.61
2017-03-27T04:43:53.846Z,1014.66
2017-03-27T04:44:53.861Z,1014.58
2017-03-27T04:45:53.875Z,1014.63
2017-03-27T04:46:53.887Z,1014.63
2017-03-27T04:47:53.902Z,1014.62
2017-03-27T04:48:53.915Z,1014.6
2017-03-27T04:49:53.980Z,1014.57
2017-03-27T04:50:53.943Z,1014.63
2017-03-27T04:51:53.958Z,1014.64
2017-03-27T04:52:53.971Z,1014.62
2017-03-27T04:53:53.983Z,1014.62
2017-03-27T04:54:53.999Z,1014.68
2017-03-27T04:55:54.013Z,1014.65
2017-03-27T04:56:54.025Z,1014.67
2017-03-27T04:57:54.039Z,1014.66
2017-03-27T04:58:54.054Z,1014.7
2017-03-27T04:59:54.067Z,1014.67
2017-03-27T05:00:54.080Z,1014.66
2017-03-27T05:01:54.096Z,1014.68
2017-03-27T05:02:54.110Z,1014.67
2017-03-27T05:03:54.124Z,1014.66
2017-03-27T05:04:54.275Z,1014.69
2017-03-27T05:05:54.153Z,1014.68
2017-03-27T05:06:54.164Z,1014.68
2017-03-27T05:07:54.177Z,1014.7
2017-03-27T05:08:54.192Z,1014.7
2017-03-27T05:09:54.207Z,1014.71
2017-03-27T05:10:54.221Z,1014.71
2017-03-27T05:11:54.233Z,1014.74
2017-03-27T05:12:54.246Z,1014.75
2017-03-27T05:13:54.261Z,1014.72
2017-03-27T05:14:54.274Z,1014.75
2017-03-27T05:15:54.287Z,1014.78
2017-03-27T05:16:54.302Z,1014.77
2017-03-27T05:17:54.316Z,1014.73
2017-03-27T05:18:54.333Z,1014.74
2017-03-27T05:19:54.343Z,1014.73
2017-03-27T05:20:54.357Z,1014.74
2017-03-27T05:21:54.372Z,1014.74
2017-03-27T05:22:54.385Z,1014.74
2017-03-27T05:23:54.397Z,1014.76
2017-03-27T05:24:54.413Z,1014.77
2017-03-27T05:25:54.425Z,1014.8
2017-03-27T05:26:54.438Z,1014.84
2017-03-27T05:27:54.451Z,1014.83
2017-03-27T05:28:54.465Z,1014.85
2017-03-27T05:29:54.480Z,1014.81
2017-03-27T05:30:54.494Z,1014.82
2017-03-27T05:31:54.507Z,1014.79
2017-03-27T05:32:54.521Z,1014.76
2017-03-27T05:33:54.535Z,1014.76
2017-03-27T05:34:54.549Z,1014.76
2017-03-27T05:35:54.564Z,1014.73
2017-03-27T05:36:54.595Z,1014.76
2017-03-27T05:37:54.590Z,1014.72
2017-03-27T05:38:54.647Z,1014.76
2017-03-27T05:39:54.618Z,1014.77
2017-03-27T05:40:54.630Z,1014.78
2017-03-27T05:41:54.645Z,1014.81
2017-03-27T05:42:54.660Z,1014.76
2017-03-27T05:43:54.672Z,1014.77
2017-03-27T05:44:54.686Z,1014.75
2017-03-27T05:45:54.701Z,1014.73
2017-03-27T05:46:54.713Z,1014.68
2017-03-27T05:47:54.728Z,1014.72
2017-03-27T05:48:54.742Z,1014.72
2017-03-27T05:49:54.754Z,1014.77
2017-03-27T05:50:54.770Z,1014.8
2017-03-27T05:51:54.784Z,1014.82
2017-03-27T05:52:54.797Z,1014.81
2017-03-27T05:53:54.810Z,1014.81
2017-03-27T05:54:54.824Z,1014.87
2017-03-27T05:55:54.837Z,1014.83
2017-03-27T05:56:54.852Z,1014.83
2017-03-27T05:57:54.864Z,1014.86
2017-03-27T05:58:54.880Z,1014.87
2017-03-27T05:59:54.892Z,1014.87
2017-03-27T06:00:54.905Z,1014.87
2017-03-27T06:01:54.919Z,1014.84
2017-03-27T06:02:54.935Z,1014.85
2017-03-27T06:03:54.948Z,1014.89
2017-03-27T06:04:54.961Z,1014.91
2017-03-27T06:05:54.977Z,1014.93
2017-03-27T06:06:54.989Z,1014.96
2017-03-27T06:07:55.007Z,1014.97
2017-03-27T06:08:55.038Z,1015.01
2017-03-27T06:09:55.031Z,1014.99
2017-03-27T06:10:55.048Z,1015.01
2017-03-27T06:11:55.061Z,1015.01
2017-03-27T06:12:55.073Z,1015
2017-03-27T06:13:55.086Z,1014.97
2017-03-27T06:14:55.103Z,1014.96
2017-03-27T06:15:55.123Z,1014.92
2017-03-27T06:16:55.137Z,1014.97
2017-03-27T06:17:55.142Z,1015
2017-03-27T06:18:55.232Z,1015
2017-03-27T06:19:55.169Z,1015.03
2017-03-27T06:20:55.183Z,1015.04
2017-03-27T06:21:55.201Z,1015.05
2017-03-27T06:22:55.214Z,1015.08
2017-03-27T06:23:55.226Z,1015.13
2017-03-27T06:24:55.238Z,1015.12
2017-03-27T06:25:55.253Z,1015.11
2017-03-27T06:26:55.267Z,1015.05
2017-03-27T06:27:55.282Z,1015.06
2017-03-27T06:28:55.298Z,1015.07
2017-03-27T06:29:55.310Z,1015.09
2017-03-27T06:30:55.323Z,1015.08
2017-03-27T06:31:55.335Z,1015.12
2017-03-27T06:32:55.352Z,1015.09
2017-03-27T06:33:55.364Z,1015.13
2017-03-27T06:34:55.381Z,1015.08
2017-03-27T06:35:55.393Z,1015.12
2017-03-27T06:36:55.406Z,1015.11
2017-03-27T06:37:55.421Z,1015.15
2017-03-27T06:38:55.434Z,1015.1
2017-03-27T06:39:55.447Z,1015.13
2017-03-27T06:40:55.462Z,1015.11
2017-03-27T06:41:55.476Z,1015.13
2017-03-27T06:42:55.509Z,1015.18
2017-03-27T06:43:55.504Z,1015.15
2017-03-27T06:44:55.519Z,1015.19
2017-03-27T06:45:55.534Z,1015.17
2017-03-27T06:46:55.546Z,1015.2
2017-03-27T06:47:55.561Z,1015.16
2017-03-27T06:48:55.574Z,1015.2
2017-03-27T06:49:55.590Z,1015.19
2017-03-27T06:50:55.602Z,1015.18
2017-03-27T06:51:55.617Z,1015.2
2017-03-27T06:52:55.631Z,1015.2
2017-03-27T06:53:55.645Z,1015.2
2017-03-27T06:54:55.659Z,1015.22
2017-03-27T06:55:55.674Z,1015.22
2017-03-27T06:56:55.689Z,1015.23
2017-03-27T06:57:55.702Z,1015.26
2017-03-27T06:58:55.717Z,1015.24
2017-03-27T06:59:55.731Z,1015.28
2017-03-27T07:00:55.745Z,1015.28
2017-03-27T07:01:55.760Z,1015.32
2017-03-27T07:02:55.774Z,1015.27
2017-03-27T07:03:55.789Z,1015.27
2017-03-27T07:04:55.803Z,1015.29
2017-03-27T07:05:55.817Z,1015.25
2017-03-27T07:06:55.833Z,1015.24
2017-03-27T07:07:55.847Z,1015.28
2017-03-27T07:08:55.860Z,1015.27
2017-03-27T07:09:55.874Z,1015.26
2017-03-27T07:10:55.890Z,1015.31
2017-03-27T07:11:55.905Z,1015.3
2017-03-27T07:12:55.920Z,1015.29
2017-03-27T07:13:55.934Z,1015.23
2017-03-27T07:14:55.950Z,1015.22
2017-03-27T07:15:55.962Z,1015.17
2017-03-27T07:16:55.976Z,1015.13
2017-03-27T07:17:55.995Z,1015.13
2017-03-27T07:18:56.007Z,1015.11
2017-03-27T07:19:56.021Z,1015.11
2017-03-27T07:20:56.035Z,1015.11
2017-03-27T07:21:56.050Z,1015.09
2017-03-27T07:22:56.066Z,1015.06
2017-03-27T07:23:56.079Z,1015.05
2017-03-27T07:24:56.094Z,1015.05
2017-03-27T07:25:56.108Z,1015.04
2017-03-27T07:26:56.123Z,1015.11
2017-03-27T07:27:56.138Z,1015.08
2017-03-27T07:28:56.154Z,1015.06
2017-03-27T07:29:56.168Z,1015.08
2017-03-27T07:30:56.222Z,1015.09
2017-03-27T07:31:56.197Z,1015.09
2017-03-27T07:32:56.230Z,1015.05
2017-03-27T07:33:56.235Z,1015.09
2017-03-27T07:34:56.247Z,1015.09
2017-03-27T07:35:56.257Z,1015.08
2017-03-27T07:36:56.314Z,1015.09
2017-03-27T07:37:56.324Z,1015.07
2017-03-27T07:38:56.333Z,1015.1
2017-03-27T07:39:56.342Z,1015.12
2017-03-27T07:40:56.350Z,1015.11
2017-03-27T07:41:56.349Z,1015.08
2017-03-27T07:42:56.484Z,1015.08
2017-03-27T07:43:56.377Z,1015.06
2017-03-27T07:44:56.400Z,1015.03
2017-03-27T07:45:56.408Z,1015.05
2017-03-27T07:46:56.424Z,1015.03
2017-03-27T07:47:56.439Z,1015.11
2017-03-27T07:48:56.453Z,1015.06
2017-03-27T07:49:56.468Z,1015.08
2017-03-27T07:50:56.483Z,1015.13
2017-03-27T07:51:56.500Z,1015.14
2017-03-27T07:52:56.514Z,1015.18
2017-03-27T07:53:56.531Z,1015.21
2017-03-27T07:54:56.546Z,1015.22
2017-03-27T07:55:56.562Z,1015.21
2017-03-27T07:56:56.578Z,1015.22
2017-03-27T07:57:56.593Z,1015.24
2017-03-27T07:58:56.609Z,1015.2
2017-03-27T07:59:56.624Z,1015.22
2017-03-27T08:00:56.638Z,1015.23
2017-03-27T08:01:56.662Z,1015.22
2017-03-27T08:02:56.669Z,1015.21
2017-03-27T08:03:56.685Z,1015.22
2017-03-27T08:04:56.700Z,1015.21
2017-03-27T08:05:56.716Z,1015.19
2017-03-27T08:06:56.732Z,1015.22
2017-03-27T08:07:56.748Z,1015.2
2017-03-27T08:08:56.764Z,1015.19
2017-03-27T08:09:58.196Z,1015.17
2017-03-27T08:10:56.794Z,1015.21
2017-03-27T08:11:56.812Z,1015.2
2017-03-27T08:12:56.826Z,1015.18
2017-03-27T08:13:56.843Z,1015.13
2017-03-27T08:14:56.858Z,1015.13
2017-03-27T08:15:56.877Z,1015.13
2017-03-27T08:16:56.890Z,1015.09
2017-03-27T08:17:56.905Z,1015.11
2017-03-27T08:18:56.922Z,1015.1
2017-03-27T08:19:56.936Z,1015.07
2017-03-27T08:20:56.953Z,1015.05
2017-03-27T08:21:56.971Z,1015.09
2017-03-27T08:22:56.987Z,1015.05
2017-03-27T08:23:57.001Z,1014.98
2017-03-27T08:24:57.017Z,1014.95
2017-03-27T08:25:57.033Z,1014.99
2017-03-27T08:26:57.050Z,1014.96
2017-03-27T08:27:57.066Z,1014.94
2017-03-27T08:28:57.081Z,1014.95
2017-03-27T08:29:57.107Z,1015.02
2017-03-27T08:30:57.114Z,1015
2017-03-27T08:31:57.130Z,1014.96
2017-03-27T08:32:57.146Z,1014.93
2017-03-27T08:33:57.161Z,1014.98
2017-03-27T08:34:57.177Z,1014.95
2017-03-27T08:35:57.198Z,1014.95
2017-03-27T08:36:57.211Z,1014.95
2017-03-27T08:37:57.227Z,1014.95
2017-03-27T08:38:57.243Z,1014.94
2017-03-27T08:39:57.258Z,1014.89
2017-03-27T08:40:57.273Z,1014.94
2017-03-27T08:41:57.291Z,1014.93
2017-03-27T08:42:57.309Z,1014.94
2017-03-27T08:43:57.323Z,1014.94
2017-03-27T08:44:57.341Z,1014.96
2017-03-27T08:45:57.359Z,1014.97
2017-03-27T08:46:57.375Z,1014.96
2017-03-27T08:47:57.389Z,1014.94
2017-03-27T08:48:57.411Z,1014.87
2017-03-27T08:49:57.424Z,1014.89
2017-03-27T08:50:57.440Z,1014.91
2017-03-27T08:51:57.455Z,1014.88
2017-03-27T08:52:57.473Z,1014.88
2017-03-27T08:53:57.490Z,1014.85
2017-03-27T08:54:57.507Z,1014.85
2017-03-27T08:55:57.523Z,1014.87
2017-03-27T08:56:57.539Z,1014.86
2017-03-27T08:57:57.556Z,1014.88
2017-03-27T08:58:57.572Z,1014.86
2017-03-27T08:59:57.590Z,1014.93
2017-03-27T09:00:57.607Z,1014.9
2017-03-27T09:01:57.622Z,1014.92
2017-03-27T09:02:57.639Z,1014.93
2017-03-27T09:03:57.658Z,1014.92
2017-03-27T09:04:57.675Z,1014.88
2017-03-27T09:05:57.690Z,1014.86
2017-03-27T09:06:57.707Z,1014.83
2017-03-27T09:07:57.724Z,1014.81
2017-03-27T09:08:57.750Z,1014.75
2017-03-27T09:09:57.757Z,1014.79
2017-03-27T09:10:57.776Z,1014.81
2017-03-27T09:11:57.793Z,1014.8
2017-03-27T09:12:57.808Z,1014.8
2017-03-27T09:13:57.826Z,1014.8
2017-03-27T09:14:57.844Z,1014.81
2017-03-27T09:15:57.862Z,1014.83
2017-03-27T09:16:57.878Z,1014.81
2017-03-27T09:17:57.895Z,1014.81
2017-03-27T09:18:57.914Z,1014.84
2017-03-27T09:19:57.931Z,1014.84
2017-03-27T09:20:57.947Z,1014.85
2017-03-27T09:21:57.965Z,1014.84
2017-03-27T09:22:57.984Z,1014.85
2017-03-27T09:23:58.000Z,1014.86
2017-03-27T09:24:58.063Z,1014.83
2017-03-27T09:25:58.063Z,1014.84
2017-03-27T09:26:58.148Z,1014.83
2017-03-27T09:27:58.081Z,1014.82
2017-03-27T09:28:58.089Z,1014.85
2017-03-27T09:29:58.105Z,1014.8
2017-03-27T09:30:58.124Z,1014.82
2017-03-27T09:31:58.141Z,1014.86
2017-03-27T09:32:58.158Z,1014.83
2017-03-27T09:33:58.177Z,1014.82
2017-03-27T09:34:58.193Z,1014.82
2017-03-27T09:35:58.212Z,1014.8
2017-03-27T09:36:58.230Z,1014.83
2017-03-27T09:37:58.248Z,1014.77
2017-03-27T09:38:58.266Z,1014.84
2017-03-27T09:39:58.283Z,1014.82
2017-03-27T09:40:58.301Z,1014.82
2017-03-27T09:41:58.318Z,1014.83
2017-03-27T09:42:58.337Z,1014.83
2017-03-27T09:43:58.355Z,1014.86
2017-03-27T09:44:58.374Z,1014.8
2017-03-27T09:45:58.390Z,1014.8
2017-03-27T09:46:58.409Z,1014.8
2017-03-27T09:47:58.426Z,1014.8
2017-03-27T09:48:58.446Z,1014.72
2017-03-27T09:49:58.464Z,1014.71
2017-03-27T09:50:58.484Z,1014.71
2017-03-27T09:51:58.501Z,1014.7
2017-03-27T09:52:58.518Z,1014.68
2017-03-27T09:53:58.537Z,1014.69
2017-03-27T09:54:58.556Z,1014.7
2017-03-27T09:55:58.575Z,1014.7
2017-03-27T09:56:58.596Z,1014.66
2017-03-27T09:57:58.611Z,1014.68
2017-03-27T09:58:58.630Z,1014.68
2017-03-27T09:59:58.649Z,1014.7
2017-03-27T10:00:58.667Z,1014.73
2017-03-27T10:01:58.685Z,1014.72
2017-03-27T10:02:58.702Z,1014.71
2017-03-27T10:03:58.722Z,1014.72
2017-03-27T10:04:58.741Z,1014.69
2017-03-27T10:05:58.760Z,1014.67
2017-03-27T10:06:58.777Z,1014.65
2017-03-27T10:07:58.795Z,1014.65
2017-03-27T10:08:58.816Z,1014.65
2017-03-27T10:09:58.834Z,1014.65
2017-03-27T10:10:58.853Z,1014.68
2017-03-27T10:11:58.871Z,1014.66
2017-03-27T10:12:58.892Z,1014.68
2017-03-27T10:13:58.912Z,1014.63
2017-03-27T10:14:58.929Z,1014.65
2017-03-27T10:15:58.946Z,1014.64
2017-03-27T10:16:58.967Z,1014.61
2017-03-27T10:17:58.986Z,1014.61
2017-03-27T10:18:59.005Z,1014.59
2017-03-27T10:19:59.025Z,1014.58
2017-03-27T10:20:59.044Z,1014.61
2017-03-27T10:21:59.064Z,1014.58
2017-03-27T10:22:59.083Z,1014.58
2017-03-27T10:23:59.106Z,1014.56
2017-03-27T10:24:59.121Z,1014.58
2017-03-27T10:25:59.140Z,1014.62
2017-03-27T10:26:59.161Z,1014.58
2017-03-27T10:27:59.179Z,1014.59
2017-03-27T10:28:59.200Z,1014.63
2017-03-27T10:29:59.219Z,1014.62
2017-03-27T10:30:59.239Z,1014.57
2017-03-27T10:31:59.257Z,1014.54
2017-03-27T10:32:59.277Z,1014.49
2017-03-27T10:33:59.297Z,1014.52
2017-03-27T10:34:59.346Z,1014.53
2017-03-27T10:35:59.337Z,1014.52
2017-03-27T10:36:59.356Z,1014.47
2017-03-27T10:37:59.377Z,1014.47
2017-03-27T10:38:59.397Z,1014.47
2017-03-27T10:39:59.441Z,1014.5
2017-03-27T10:40:59.436Z,1014.42
2017-03-27T10:41:59.460Z,1014.44
2017-03-27T10:42:59.501Z,1014.45
2017-03-27T10:43:59.496Z,1014.48
2017-03-27T10:44:59.517Z,1014.47
2017-03-27T10:45:59.536Z,1014.48
2017-03-27T10:46:59.555Z,1014.47
2017-03-27T10:47:59.579Z,1014.46
2017-03-27T10:48:59.597Z,1014.45
2017-03-27T10:49:59.618Z,1014.38
2017-03-27T10:50:59.742Z,1014.39
2017-03-27T10:51:59.659Z,1014.33
2017-03-27T10:52:59.679Z,1014.35
2017-03-27T10:53:59.699Z,1014.35
2017-03-27T10:54:59.721Z,1014.32
2017-03-27T10:55:59.740Z,1014.37
2017-03-27T10:56:59.762Z,1014.37
2017-03-27T10:57:59.784Z,1014.3
2017-03-27T10:58:59.914Z,1014.3
2017-03-27T10:59:59.824Z,1014.3
2017-03-27T11:00:59.910Z,1014.32
2017-03-27T11:01:59.920Z,1014.3
2017-03-27T11:02:59.928Z,1014.32
2017-03-27T11:04:00.237Z,1014.31
2017-03-27T11:04:59.946Z,1014.28
2017-03-27T11:05:59.947Z,1014.29
2017-03-27T11:07:00.091Z,1014.27
2017-03-27T11:08:00.106Z,1014.25
2017-03-27T11:09:00.208Z,1014.28
2017-03-27T11:10:00.139Z,1014.3
2017-03-27T11:11:00.139Z,1014.27
2017-03-27T11:12:00.147Z,1014.18
2017-03-27T11:13:00.127Z,1014.18
2017-03-27T11:14:00.142Z,1014.13
2017-03-27T11:15:00.145Z,1014.14
2017-03-27T11:16:00.192Z,1014.12
2017-03-27T11:17:00.193Z,1014.08
2017-03-27T11:18:00.202Z,1014.1
2017-03-27T11:19:00.222Z,1014.09
2017-03-27T11:20:00.246Z,1014.11
2017-03-27T11:21:00.267Z,1014.09
2017-03-27T11:22:00.288Z,1014.09
2017-03-27T11:23:00.308Z,1014.08
2017-03-27T11:24:00.331Z,1014.05
2017-03-27T11:25:00.352Z,1014.04
2017-03-27T11:26:00.372Z,1014.05
2017-03-27T11:27:00.394Z,1014.04
2017-03-27T11:28:00.422Z,1014.03
2017-03-27T11:29:00.436Z,1014
2017-03-27T11:30:00.461Z,1014.01
2017-03-27T11:31:00.481Z,1014.04
2017-03-27T11:32:00.503Z,1014.01
2017-03-27T11:33:00.525Z,1013.96
2017-03-27T11:34:00.548Z,1013.99
2017-03-27T11:35:00.569Z,1013.96
2017-03-27T11:36:00.593Z,1013.97
2017-03-27T11:37:00.612Z,1013.97
2017-03-27T11:38:00.641Z,1013.99
2017-03-27T11:39:00.655Z,1013.95
2017-03-27T11:40:00.678Z,1013.98
2017-03-27T11:41:00.707Z,1013.97
2017-03-27T11:42:00.722Z,1013.98
2017-03-27T11:43:00.744Z,1013.98
2017-03-27T11:44:00.767Z,1013.99
2017-03-27T11:45:00.793Z,1013.99
2017-03-27T11:46:00.813Z,1013.96
2017-03-27T11:47:00.842Z,1013.94
2017-03-27T11:48:00.855Z,1013.98
2017-03-27T11:49:00.878Z,1013.95
2017-03-27T11:50:00.900Z,1013.92
2017-03-27T11:51:00.922Z,1013.89
2017-03-27T11:52:00.946Z,1013.88
2017-03-27T11:53:00.968Z,1013.85
2017-03-27T11:54:00.988Z,1013.83
2017-03-27T11:55:01.010Z,1013.81
2017-03-27T11:56:01.059Z,1013.78
2017-03-27T11:57:01.062Z,1013.78
2017-03-27T11:58:01.078Z,1013.75
2017-03-27T11:59:01.120Z,1013.74
2017-03-27T12:00:01.122Z,1013.7
2017-03-27T12:01:01.147Z,1013.74
2017-03-27T12:02:01.167Z,1013.75
2017-03-27T12:03:01.190Z,1013.7
2017-03-27T12:04:01.213Z,1013.69
2017-03-27T12:05:01.235Z,1013.69
2017-03-27T12:06:01.259Z,1013.65
2017-03-27T12:07:01.282Z,1013.64
2017-03-27T12:08:01.304Z,1013.66
2017-03-27T12:09:01.326Z,1013.67